Time;durP1;ratioP1;P1;durP2;ratioP2;P2;SDS_P1;SDS_P2;PMS_P1;PMS_P2;Temp;Humidity;BMP_temperature;BMP_pressure;BME280_temperature;BME280_humidity;BME280_pressure;Samples;Min_cycle;Max_cycle;Signal;HPM_P1;HPM_P2
2022/03/31 00:00:09;;;;;;;18.13;8.07;;;;;;;;;;5012238;28;20033;-37
2022/03/31 00:02:34;;;;;;;23.90;8.90;;;;;;;;;;5012467;28;20120;-37
2022/03/31 00:05:00;;;;;;;14.15;8.35;;;;;;;;;;5012380;28;20060;-37
2022/03/31 00:07:25;;;;;;;18.30;8.07;;;;;;;;;;5014001;28;20025;-37
2022/03/31 00:09:51;;;;;;;16.85;8.15;;;;;;;;;;5016147;28;20033;-37
2022/03/31 00:12:17;;;;;;;15.80;8.38;;;;;;;;;;5015943;28;20030;-37
2022/03/31 00:14:42;;;;;;;18.90;8.50;;;;;;;;;;5015976;28;20037;-38
2022/03/31 00:17:07;;;;;;;20.33;7.28;;;;;;;;;;5015742;28;20026;-37
2022/03/31 00:19:33;;;;;;;14.43;8.30;;;;;;;;;;5015805;28;20057;-37
2022/03/31 00:21:59;;;;;;;12.40;7.10;;;;;;;;;;5015561;28;20025;-37
2022/03/31 00:24:24;;;;;;;15.60;8.57;;;;;;;;;;5015784;28;20045;-37
2022/03/31 00:26:50;;;;;;;13.73;8.10;;;;;;;;;;5015801;28;20101;-37
2022/03/31 00:29:15;;;;;;;17.02;8.80;;;;;;;;;;5015737;28;20026;-36
2022/03/31 00:31:41;;;;;;;13.55;6.85;;;;;;;;;;5015174;28;20036;-37
2022/03/31 00:34:06;;;;;;;17.50;8.32;;;;;;;;;;5015544;28;20034;-37
2022/03/31 00:36:32;;;;;;;19.50;8.38;;;;;;;;;;5015369;28;20113;-37
2022/03/31 00:41:42;;;;;;;17.88;8.63;;;;;;;;;;5015285;28;20088;-37
2022/03/31 00:44:08;;;;;;;13.15;8.02;;;;;;;;;;5015433;28;20030;-37
2022/03/31 00:46:34;;;;;;;18.30;7.38;;;;;;;;;;5015027;28;20040;-37
2022/03/31 00:49:01;;;;;;;13.95;6.70;;;;;;;;;;5015031;28;20050;-36
2022/03/31 00:51:30;;;;;;;13.40;7.18;;;;;;;;;;5014882;28;20041;-36
2022/03/31 00:53:56;;;;;;;13.32;8.27;;;;;;;;;;5015260;28;20026;-37
2022/03/31 00:56:24;;;;;;;14.63;7.82;;;;;;;;;;5015195;28;20030;-37
2022/03/31 00:58:51;;;;;;;21.42;8.20;;;;;;;;;;5014905;28;20026;-37
2022/03/31 01:01:18;;;;;;;17.67;8.30;;;;;;;;;;5014849;28;20048;-37
2022/03/31 01:03:44;;;;;;;17.90;8.02;;;;;;;;;;5014685;28;20466;-37
2022/03/31 01:06:09;;;;;;;13.52;7.45;;;;;;;;;;5014721;28;20109;-37
2022/03/31 01:08:35;;;;;;;17.88;7.80;;;;;;;;;;5014929;28;20109;-37
2022/03/31 01:11:00;;;;;;;20.27;6.90;;;;;;;;;;5014860;28;20030;-37
2022/03/31 01:13:26;;;;;;;14.05;7.72;;;;;;;;;;5014884;28;20474;-37
2022/03/31 01:15:52;;;;;;;15.02;7.95;;;;;;;;;;5014856;28;20605;-36
2022/03/31 01:18:18;;;;;;;10.65;7.10;;;;;;;;;;5013753;28;20037;-37
2022/03/31 01:20:43;;;;;;;12.60;6.80;;;;;;;;;;5014397;28;20112;-37
2022/03/31 01:23:14;;;;;;;17.55;8.13;;;;;;;;;;5014343;28;20080;-38
2022/03/31 01:25:40;;;;;;;16.60;7.43;;;;;;;;;;5014657;28;20386;-37
2022/03/31 01:28:05;;;;;;;14.15;7.20;;;;;;;;;;5014579;28;20032;-37
2022/03/31 01:30:31;;;;;;;15.02;7.88;;;;;;;;;;5014408;28;20026;-37
2022/03/31 01:32:57;;;;;;;18.20;7.00;;;;;;;;;;5014238;28;20496;-37
2022/03/31 01:35:23;;;;;;;13.82;7.25;;;;;;;;;;5014133;28;20076;-37
2022/03/31 01:37:48;;;;;;;21.65;7.28;;;;;;;;;;5014149;28;20517;-36
2022/03/31 01:40:14;;;;;;;16.02;7.50;;;;;;;;;;5014056;28;20029;-37
2022/03/31 01:42:42;;;;;;;19.30;7.28;;;;;;;;;;5014224;28;20034;-36
2022/03/31 01:45:11;;;;;;;14.00;7.65;;;;;;;;;;5014301;28;20382;-37
2022/03/31 01:47:37;;;;;;;13.48;7.70;;;;;;;;;;5013786;28;20022;-38
2022/03/31 01:50:03;;;;;;;19.35;8.20;;;;;;;;;;5014144;28;20504;-37
2022/03/31 01:52:29;;;;;;;13.38;8.32;;;;;;;;;;5013755;28;20033;-37
2022/03/31 01:54:54;;;;;;;22.77;8.90;;;;;;;;;;5014046;28;20029;-37
2022/03/31 01:57:20;;;;;;;19.15;7.38;;;;;;;;;;5013809;28;20021;-37
2022/03/31 01:59:45;;;;;;;16.50;7.82;;;;;;;;;;5013995;28;20026;-37
2022/03/31 02:02:13;;;;;;;23.27;9.27;;;;;;;;;;5013663;28;20040;-36
2022/03/31 02:04:40;;;;;;;14.52;7.70;;;;;;;;;;5013911;28;20026;-37
2022/03/31 02:07:06;;;;;;;17.08;7.68;;;;;;;;;;5013549;28;20051;-37
2022/03/31 02:09:32;;;;;;;16.13;7.68;;;;;;;;;;5013874;28;20030;-37
2022/03/31 02:11:57;;;;;;;11.40;6.78;;;;;;;;;;5013448;28;20540;-37
2022/03/31 02:14:24;;;;;;;12.43;7.97;;;;;;;;;;5013722;28;20026;-38
2022/03/31 02:16:50;;;;;;;16.95;8.18;;;;;;;;;;5013422;28;20461;-37
2022/03/31 02:19:16;;;;;;;17.77;8.57;;;;;;;;;;5013697;28;20033;-36
2022/03/31 02:21:42;;;;;;;14.85;8.65;;;;;;;;;;5013622;28;20037;-37
2022/03/31 02:24:08;;;;;;;13.98;8.00;;;;;;;;;;5013642;28;20080;-37
2022/03/31 02:26:38;;;;;;;15.95;8.80;;;;;;;;;;5013195;28;20026;-37
2022/03/31 02:29:03;;;;;;;20.30;8.90;;;;;;;;;;5013271;28;20029;-37
2022/03/31 02:31:32;;;;;;;15.95;8.35;;;;;;;;;;5013727;28;20084;-37
2022/03/31 02:33:57;;;;;;;17.98;9.20;;;;;;;;;;4995574;28;20113;-37
2022/03/31 02:36:23;;;;;;;12.70;7.63;;;;;;;;;;5013088;28;20500;-37
2022/03/31 02:38:50;;;;;;;21.40;9.30;;;;;;;;;;4995596;28;20036;-37
2022/03/31 02:41:16;;;;;;;20.13;8.45;;;;;;;;;;5013069;28;20084;-37
2022/03/31 02:43:41;;;;;;;17.30;9.10;;;;;;;;;;5013318;28;20030;-37
2022/03/31 02:46:08;;;;;;;24.90;8.38;;;;;;;;;;5012905;28;20477;-37
2022/03/31 02:48:33;;;;;;;20.50;8.95;;;;;;;;;;5013035;28;20390;-38
2022/03/31 02:50:59;;;;;;;21.25;9.10;;;;;;;;;;5012982;28;20026;-37
2022/03/31 02:56:09;;;;;;;19.65;9.75;;;;;;;;;;5013200;28;20033;-37
2022/03/31 02:58:34;;;;;;;22.00;9.35;;;;;;;;;;5012829;28;20501;-37
2022/03/31 03:01:00;;;;;;;18.05;9.43;;;;;;;;;;5012768;28;20512;-38
2022/03/31 03:03:25;;;;;;;19.95;9.73;;;;;;;;;;5013049;28;20032;-38
2022/03/31 03:05:52;;;;;;;17.95;9.73;;;;;;;;;;5012968;28;20030;-38
2022/03/31 03:08:17;;;;;;;16.02;9.35;;;;;;;;;;5012709;28;20083;-38
2022/03/31 03:10:43;;;;;;;18.15;9.40;;;;;;;;;;5012490;28;20018;-38
2022/03/31 03:13:09;;;;;;;17.30;9.70;;;;;;;;;;5012545;28;20056;-38
2022/03/31 03:15:36;;;;;;;16.55;9.57;;;;;;;;;;5012914;28;20033;-37
2022/03/31 03:18:02;;;;;;;15.80;8.82;;;;;;;;;;5012593;28;20072;-37
2022/03/31 03:20:27;;;;;;;14.68;8.52;;;;;;;;;;5012661;28;20030;-37
2022/03/31 03:22:54;;;;;;;16.48;7.55;;;;;;;;;;5012864;28;20470;-36
2022/03/31 03:25:20;;;;;;;18.00;9.07;;;;;;;;;;5012511;28;20072;-36
2022/03/31 03:27:48;;;;;;;27.10;8.85;;;;;;;;;;5012843;28;20053;-37
2022/03/31 03:30:15;;;;;;;5.97;3.97;;;;;;;;;;5012766;28;20359;-36
2022/03/31 03:32:41;;;;;;;20.95;7.82;;;;;;;;;;5012645;28;20030;-37
2022/03/31 03:35:09;;;;;;;16.48;8.30;;;;;;;;;;5012391;28;20505;-37
2022/03/31 03:37:36;;;;;;;17.48;9.05;;;;;;;;;;5012613;28;20018;-37
2022/03/31 03:40:05;;;;;;;21.63;8.98;;;;;;;;;;5012650;28;20029;-37
2022/03/31 03:42:31;;;;;;;14.57;8.70;;;;;;;;;;5014513;28;20188;-37
2022/03/31 03:44:58;;;;;;;16.55;8.45;;;;;;;;;;5016184;28;20026;-36
2022/03/31 03:47:23;;;;;;;18.38;7.90;;;;;;;;;;5016545;28;20053;-36
2022/03/31 03:49:49;;;;;;;13.18;8.85;;;;;;;;;;5015977;28;20139;-37
2022/03/31 03:52:15;;;;;;;18.55;8.73;;;;;;;;;;5016037;28;20045;-36
2022/03/31 03:54:41;;;;;;;13.32;7.43;;;;;;;;;;5016360;28;20284;-36
2022/03/31 03:57:07;;;;;;;16.98;7.18;;;;;;;;;;5015920;28;20113;-37
2022/03/31 03:59:33;;;;;;;7.90;5.90;;;;;;;;;;5016240;28;20038;-37
2022/03/31 04:01:59;;;;;;;15.63;7.13;;;;;;;;;;5016191;28;20446;-37
2022/03/31 04:04:25;;;;;;;9.98;6.97;;;;;;;;;;5015906;28;20109;-36
2022/03/31 04:06:51;;;;;;;13.75;8.38;;;;;;;;;;5015799;28;20512;-37
2022/03/31 04:09:17;;;;;;;39.60;9.82;;;;;;;;;;5016044;28;20032;-37
2022/03/31 04:11:42;;;;;;;27.08;8.68;;;;;;;;;;5015862;28;20549;-37
2022/03/31 04:14:08;;;;;;;13.88;8.10;;;;;;;;;;5016002;28;20026;-36
2022/03/31 04:16:34;;;;;;;20.67;9.15;;;;;;;;;;5015914;28;20572;-37
2022/03/31 04:18:59;;;;;;;17.90;9.43;;;;;;;;;;5015568;28;20036;-37
2022/03/31 04:21:25;;;;;;;23.90;9.35;;;;;;;;;;5015867;28;20017;-36
2022/03/31 04:23:50;;;;;;;15.13;8.43;;;;;;;;;;4997982;28;20033;-37
2022/03/31 04:26:16;;;;;;;19.05;10.02;;;;;;;;;;5015754;28;20080;-36
2022/03/31 04:28:41;;;;;;;18.52;8.77;;;;;;;;;;5015690;28;20026;-38
2022/03/31 04:31:07;;;;;;;18.92;10.05;;;;;;;;;;5015251;28;20042;-38
2022/03/31 04:33:32;;;;;;;23.83;10.02;;;;;;;;;;4997889;28;20030;-37
2022/03/31 04:35:58;;;;;;;22.02;10.70;;;;;;;;;;5015504;28;20040;-38
2022/03/31 04:38:23;;;;;;;23.10;11.95;;;;;;;;;;5015184;28;20426;-37
2022/03/31 04:40:49;;;;;;;26.10;12.00;;;;;;;;;;5015143;28;20117;-38
2022/03/31 04:43:14;;;;;;;25.58;11.35;;;;;;;;;;5015386;28;20156;-38
2022/03/31 04:45:41;;;;;;;17.75;10.43;;;;;;;;;;5015398;28;20025;-38
2022/03/31 04:48:07;;;;;;;24.17;11.02;;;;;;;;;;5015083;28;20471;-38
2022/03/31 04:50:32;;;;;;;16.77;10.13;;;;;;;;;;5015201;28;20050;-37
2022/03/31 04:52:58;;;;;;;26.27;10.68;;;;;;;;;;5014331;28;20417;-37
2022/03/31 04:55:25;;;;;;;25.95;10.63;;;;;;;;;;5014613;28;20025;-37
2022/03/31 04:57:52;;;;;;;21.27;10.65;;;;;;;;;;5015090;28;20076;-38
2022/03/31 05:00:17;;;;;;;25.88;11.02;;;;;;;;;;5014830;28;20060;-37
2022/03/31 05:02:43;;;;;;;20.20;10.32;;;;;;;;;;5015007;28;20057;-38
2022/03/31 05:05:09;;;;;;;17.80;9.43;;;;;;;;;;5015030;28;20029;-37
2022/03/31 05:07:35;;;;;;;18.48;9.75;;;;;;;;;;5014663;28;20041;-38
2022/03/31 05:10:00;;;;;;;19.20;9.77;;;;;;;;;;5014878;28;20022;-38
2022/03/31 05:12:26;;;;;;;24.35;10.10;;;;;;;;;;5014546;28;20026;-37
2022/03/31 05:14:52;;;;;;;19.77;9.15;;;;;;;;;;5014755;28;20025;-37
2022/03/31 05:17:17;;;;;;;16.05;9.02;;;;;;;;;;4997226;28;20045;-37
2022/03/31 05:19:43;;;;;;;14.10;9.63;;;;;;;;;;5014367;28;20025;-37
2022/03/31 05:22:08;;;;;;;22.88;10.73;;;;;;;;;;5013966;28;20032;-36
2022/03/31 05:24:34;;;;;;;26.80;9.90;;;;;;;;;;5012806;28;20030;-38
2022/03/31 05:26:59;;;;;;;21.90;10.73;;;;;;;;;;5013497;28;20491;-37
2022/03/31 05:29:25;;;;;;;21.77;10.43;;;;;;;;;;5014148;28;20030;-36
2022/03/31 05:31:51;;;;;;;18.40;8.25;;;;;;;;;;5014217;28;20044;-39
2022/03/31 05:34:18;;;;;;;20.55;8.52;;;;;;;;;;5014136;28;20112;-38
2022/03/31 05:36:46;;;;;;;15.23;7.78;;;;;;;;;;5014058;28;20037;-38
2022/03/31 05:39:11;;;;;;;21.75;8.50;;;;;;;;;;5014171;28;20030;-47
2022/03/31 05:41:37;;;;;;;21.05;6.93;;;;;;;;;;5013875;28;20363;-41
2022/03/31 05:44:03;;;;;;;13.23;6.45;;;;;;;;;;5012902;28;20095;-41
2022/03/31 05:46:29;;;;;;;17.25;6.60;;;;;;;;;;5013692;28;20109;-43
2022/03/31 05:48:54;;;;;;;6.22;5.13;;;;;;;;;;5013759;28;20085;-41
2022/03/31 05:51:20;;;;;;;16.85;6.22;;;;;;;;;;5013985;28;20030;-43
2022/03/31 05:53:46;;;;;;;17.67;7.28;;;;;;;;;;5013809;28;20021;-43
2022/03/31 05:56:11;;;;;;;17.90;7.43;;;;;;;;;;5014021;28;20059;-43
2022/03/31 05:58:37;;;;;;;24.10;7.43;;;;;;;;;;5013642;28;20381;-42
2022/03/31 06:01:04;;;;;;;15.88;7.00;;;;;;;;;;5013940;28;20041;-42
2022/03/31 06:03:30;;;;;;;17.20;6.03;;;;;;;;;;5013939;28;20472;-46
2022/03/31 06:05:56;;;;;;;18.08;7.55;;;;;;;;;;5013593;28;20030;-42
2022/03/31 06:08:21;;;;;;;19.08;4.18;;;;;;;;;;5013493;28;20138;-43
2022/03/31 06:10:47;;;;;;;17.98;7.32;;;;;;;;;;5013598;28;20025;-43
2022/03/31 06:13:13;;;;;;;16.08;7.15;;;;;;;;;;4995846;28;20029;-42
2022/03/31 06:15:40;;;;;;;21.23;7.32;;;;;;;;;;5013674;28;20025;-44
2022/03/31 06:18:09;;;;;;;14.48;7.00;;;;;;;;;;5013560;28;20022;-42
2022/03/31 06:20:35;;;;;;;14.98;7.47;;;;;;;;;;5013418;28;20053;-42
2022/03/31 06:23:01;;;;;;;15.90;7.60;;;;;;;;;;5013247;28;20374;-42
2022/03/31 06:25:27;;;;;;;18.08;8.32;;;;;;;;;;5013303;28;20026;-45
2022/03/31 06:27:54;;;;;;;22.98;8.02;;;;;;;;;;5013510;28;20028;-44
2022/03/31 06:30:20;;;;;;;22.38;8.90;;;;;;;;;;5013183;28;20072;-46
2022/03/31 06:32:46;;;;;;;18.55;8.07;;;;;;;;;;5012975;28;20441;-44
2022/03/31 06:35:14;;;;;;;16.33;7.45;;;;;;;;;;4995569;28;20116;-44
2022/03/31 06:37:47;;;;;;;19.92;7.40;;;;;;;;;;5013317;28;20030;-42
2022/03/31 06:40:17;;;;;;;21.38;8.27;;;;;;;;;;5013011;28;20133;-43
2022/03/31 06:42:44;;;;;;;13.68;7.40;;;;;;;;;;5012946;28;20038;-45
2022/03/31 06:45:12;;;;;;;15.00;7.80;;;;;;;;;;5012936;28;20466;-42
2022/03/31 06:47:42;;;;;;;12.15;7.78;;;;;;;;;;5012941;28;20038;-41
2022/03/31 06:50:09;;;;;;;14.90;6.97;;;;;;;;;;5012798;28;20025;-45
2022/03/31 06:52:34;;;;;;;17.38;7.35;;;;;;;;;;4994921;28;20493;-44
2022/03/31 06:55:00;;;;;;;15.98;6.53;;;;;;;;;;5013016;28;20053;-44
2022/03/31 06:57:26;;;;;;;14.98;6.68;;;;;;;;;;5012814;28;20549;-44
2022/03/31 06:59:51;;;;;;;17.77;6.82;;;;;;;;;;5012999;28;20048;-42
2022/03/31 07:02:17;;;;;;;19.50;7.00;;;;;;;;;;5012627;28;20022;-43
2022/03/31 07:04:43;;;;;;;17.20;7.60;;;;;;;;;;5009947;28;20061;-42
2022/03/31 07:07:09;;;;;;;17.52;6.97;;;;;;;;;;5010735;28;20025;-41
2022/03/31 07:09:34;;;;;;;15.15;6.57;;;;;;;;;;5012560;28;20026;-43
2022/03/31 07:12:00;;;;;;;11.15;5.80;;;;;;;;;;5012762;28;20041;-44
2022/03/31 07:14:26;;;;;;;3.97;2.78;;;;;;;;;;5012599;28;20042;-45
2022/03/31 07:16:51;;;;;;;17.08;6.25;;;;;;;;;;5012153;28;20045;-42
2022/03/31 07:19:17;;;;;;;10.35;5.28;;;;;;;;;;5012380;28;20022;-46
2022/03/31 07:21:43;;;;;;;15.73;6.38;;;;;;;;;;5012574;28;20026;-42
2022/03/31 07:24:09;;;;;;;16.65;5.72;;;;;;;;;;5011830;28;20194;-43
2022/03/31 07:26:35;;;;;;;11.43;5.97;;;;;;;;;;5010792;28;20108;-44
2022/03/31 07:29:00;;;;;;;13.93;5.93;;;;;;;;;;5010300;28;20033;-42
2022/03/31 07:31:28;;;;;;;9.27;4.70;;;;;;;;;;5009914;28;20074;-41
2022/03/31 07:33:54;;;;;;;11.48;6.07;;;;;;;;;;5011068;28;20026;-42
2022/03/31 07:36:20;;;;;;;11.85;5.15;;;;;;;;;;5010776;28;20030;-45
2022/03/31 07:38:45;;;;;;;6.53;2.90;;;;;;;;;;5011014;28;20037;-42
2022/03/31 07:41:12;;;;;;;11.45;4.72;;;;;;;;;;5010569;28;20524;-42
2022/03/31 07:43:38;;;;;;;7.70;4.43;;;;;;;;;;5009904;28;20542;-45
2022/03/31 07:46:05;;;;;;;13.80;4.45;;;;;;;;;;5010368;28;20123;-42
2022/03/31 07:48:31;;;;;;;11.30;5.97;;;;;;;;;;5010474;28;20074;-44
2022/03/31 07:50:58;;;;;;;8.30;3.72;;;;;;;;;;5010444;28;20065;-40
2022/03/31 07:53:27;;;;;;;9.43;4.57;;;;;;;;;;5010280;28;20036;-41
2022/03/31 07:55:54;;;;;;;9.65;2.97;;;;;;;;;;5010691;28;20603;-43
2022/03/31 07:58:20;;;;;;;8.98;4.28;;;;;;;;;;5010337;28;20456;-44
2022/03/31 08:00:50;;;;;;;10.60;5.32;;;;;;;;;;5010752;28;20022;-42
2022/03/31 08:03:16;;;;;;;;;;;;;;;;;;5011016;28;20040;-42
2022/03/31 08:05:42;;;;;;;32.55;4.30;;;;;;;;;;5010161;28;19917;-41
2022/03/31 08:08:07;;;;;;;8.43;4.60;;;;;;;;;;5010155;28;20460;-41
2022/03/31 08:10:33;;;;;;;8.35;5.05;;;;;;;;;;5010334;28;20037;-42
2022/03/31 08:12:58;;;;;;;7.80;3.17;;;;;;;;;;5010463;28;20034;-44
2022/03/31 08:15:24;;;;;;;10.52;5.38;;;;;;;;;;5010366;28;20628;-42
2022/03/31 08:17:50;;;;;;;15.88;4.93;;;;;;;;;;5010472;28;20076;-44
2022/03/31 08:20:17;;;;;;;8.88;3.75;;;;;;;;;;5010465;28;20033;-40
2022/03/31 08:22:43;;;;;;;13.68;5.28;;;;;;;;;;5010348;28;20038;-46
2022/03/31 08:25:10;;;;;;;11.35;5.20;;;;;;;;;;4992377;28;20025;-41
2022/03/31 08:27:37;;;;;;;5.43;3.00;;;;;;;;;;5010285;28;20026;-43
2022/03/31 08:30:09;;;;;;;5.05;3.67;;;;;;;;;;5013811;28;20061;-45
2022/03/31 08:32:39;;;;;;;7.20;4.45;;;;;;;;;;5013916;28;20038;-40
2022/03/31 08:35:07;;;;;;;7.43;3.38;;;;;;;;;;5013392;28;20524;-41
2022/03/31 08:37:33;;;;;;;4.63;2.53;;;;;;;;;;5013845;28;20113;-42
2022/03/31 08:39:58;;;;;;;9.55;5.97;;;;;;;;;;5013434;28;20554;-41
2022/03/31 08:42:24;;;;;;;6.03;4.18;;;;;;;;;;5013400;28;20121;-42
2022/03/31 08:44:51;;;;;;;10.10;5.85;;;;;;;;;;5013825;28;20109;-42
2022/03/31 08:47:18;;;;;;;8.93;4.88;;;;;;;;;;5013357;28;20033;-41
2022/03/31 08:49:46;;;;;;;6.90;3.97;;;;;;;;;;5013415;28;20418;-45
2022/03/31 08:52:12;;;;;;;6.30;3.83;;;;;;;;;;5013560;28;20084;-41
2022/03/31 08:54:38;;;;;;;17.80;9.25;;;;;;;;;;5013332;28;20494;-42
2022/03/31 08:57:05;;;;;;;14.60;7.15;;;;;;;;;;5013385;28;20112;-41
2022/03/31 08:59:30;;;;;;;4.05;3.15;;;;;;;;;;5013192;28;20540;-40
2022/03/31 09:01:56;;;;;;;22.58;9.27;;;;;;;;;;5013539;28;20034;-43
2022/03/31 09:04:22;;;;;;;9.98;4.95;;;;;;;;;;5012904;28;20030;-41
2022/03/31 09:07:02;;;;;;;6.88;4.53;;;;;;;;;;5013147;28;20060;-41
2022/03/31 09:09:28;;;;;;;9.68;4.40;;;;;;;;;;5013034;28;20029;-41
2022/03/31 09:11:54;;;;;;;16.40;4.53;;;;;;;;;;5013113;28;20570;-43
2022/03/31 09:14:32;;;;;;;8.63;4.32;;;;;;;;;;5012827;28;20069;-43
2022/03/31 09:17:12;;;;;;;16.73;4.65;;;;;;;;;;5013172;28;20077;-40
2022/03/31 09:19:38;;;;;;;6.40;4.00;;;;;;;;;;5012772;28;20589;-41
2022/03/31 09:22:04;;;;;;;5.43;4.30;;;;;;;;;;5013206;28;20125;-40
2022/03/31 09:24:31;;;;;;;14.80;5.30;;;;;;;;;;5012862;28;20085;-41
2022/03/31 09:26:58;;;;;;;6.53;4.03;;;;;;;;;;5012749;28;20021;-41
2022/03/31 09:29:28;;;;;;;6.72;5.25;;;;;;;;;;5013030;28;20037;-41
2022/03/31 09:32:05;;;;;;;14.82;7.43;;;;;;;;;;5012873;28;20037;-41
2022/03/31 09:34:42;;;;;;;7.18;4.05;;;;;;;;;;5012604;28;20026;-43
2022/03/31 09:37:08;;;;;;;18.60;8.50;;;;;;;;;;5012741;28;20030;-42
2022/03/31 09:39:34;;;;;;;11.50;7.90;;;;;;;;;;5012387;28;20473;-41
2022/03/31 09:41:59;;;;;;;14.52;6.18;;;;;;;;;;5013329;28;20053;-42
2022/03/31 09:44:25;;;;;;;10.45;6.00;;;;;;;;;;5014289;28;20068;-42
2022/03/31 09:46:51;;;;;;;7.93;5.70;;;;;;;;;;5013975;28;20034;-40
2022/03/31 09:49:27;;;;;;;16.40;9.90;;;;;;;;;;5013677;28;20083;-41
2022/03/31 09:51:55;;;;;;;22.80;11.20;;;;;;;;;;5013732;28;20025;-41
2022/03/31 09:54:25;;;;;;;18.00;11.32;;;;;;;;;;5014027;28;20025;-40
2022/03/31 09:56:51;;;;;;;9.68;5.07;;;;;;;;;;5013852;28;20581;-40
2022/03/31 09:59:17;;;;;;;14.98;5.55;;;;;;;;;;5014112;28;20040;-42
2022/03/31 10:01:43;;;;;;;9.32;5.68;;;;;;;;;;5014027;28;20061;-41
2022/03/31 10:04:12;;;;;;;11.55;7.45;;;;;;;;;;5013526;28;20502;-41
2022/03/31 10:06:41;;;;;;;16.33;9.48;;;;;;;;;;5013902;28;20113;-42
2022/03/31 10:09:09;;;;;;;12.23;6.78;;;;;;;;;;5013555;28;20497;-41
2022/03/31 10:11:38;;;;;;;16.65;8.18;;;;;;;;;;5013743;28;20121;-41
2022/03/31 10:14:24;;;;;;;10.73;7.03;;;;;;;;;;5013642;28;20050;-41
2022/03/31 10:16:55;;;;;;;15.90;9.57;;;;;;;;;;4982718;28;20042;-40
2022/03/31 10:19:37;;;;;;;14.93;9.35;;;;;;;;;;4995901;28;20037;-41
2022/03/31 10:24:41;;;;;;;15.40;9.48;;;;;;;;;;5013366;28;20026;-41
2022/03/31 10:25:03;;;;;;;25.88;7.28;;;;;;;;;;5013144;28;20038;-42
2022/03/31 10:27:31;;;;;;;29.45;17.20;;;;;;;;;;5013493;28;20037;-45
2022/03/31 10:30:17;;;;;;;21.95;12.35;;;;;;;;;;5013550;28;20030;-44
2022/03/31 10:32:54;;;;;;;22.15;11.43;;;;;;;;;;5013174;28;20116;-43
2022/03/31 10:35:22;;;;;;;15.70;8.55;;;;;;;;;;5013186;28;20060;-41
2022/03/31 10:37:48;;;;;;;12.98;9.75;;;;;;;;;;5012377;28;20025;-42
2022/03/31 10:40:16;;;;;;;9.50;6.68;;;;;;;;;;5011490;28;20492;-42
2022/03/31 10:42:42;;;;;;;20.20;10.30;;;;;;;;;;5011446;28;20045;-43
2022/03/31 10:45:13;;;;;;;28.15;14.65;;;;;;;;;;5011413;28;20029;-41
2022/03/31 10:47:42;;;;;;;18.60;11.68;;;;;;;;;;5011220;28;20025;-41
2022/03/31 10:50:11;;;;;;;15.23;11.13;;;;;;;;;;5011599;28;20030;-41
2022/03/31 10:52:37;;;;;;;17.60;11.20;;;;;;;;;;5010399;28;20041;-43
2022/03/31 10:55:08;;;;;;;23.13;14.23;;;;;;;;;;5011594;28;20068;-43
2022/03/31 10:57:39;;;;;;;20.67;12.20;;;;;;;;;;5011243;28;20026;-40
2022/03/31 11:00:07;;;;;;;14.35;9.73;;;;;;;;;;5010815;28;20022;-41
2022/03/31 11:02:40;;;;;;;18.90;11.77;;;;;;;;;;5010544;28;20026;-42
2022/03/31 11:05:06;;;;;;;23.52;13.98;;;;;;;;;;5011561;28;20072;-42
2022/03/31 11:07:31;;;;;;;25.77;12.35;;;;;;;;;;5010980;28;20057;-41
2022/03/31 11:10:01;;;;;;;18.15;13.10;;;;;;;;;;5011047;28;20053;-43
2022/03/31 11:12:28;;;;;;;27.37;16.83;;;;;;;;;;5009991;28;20048;-43
2022/03/31 11:15:00;;;;;;;30.48;20.83;;;;;;;;;;5011077;28;20021;-41
2022/03/31 11:17:29;;;;;;;33.08;14.15;;;;;;;;;;5010935;28;20053;-41
2022/03/31 11:19:56;;;;;;;20.50;14.95;;;;;;;;;;5011174;28;20418;-41
2022/03/31 11:22:26;;;;;;;32.17;21.20;;;;;;;;;;4977551;28;20042;-42
2022/03/31 11:25:07;;;;;;;30.88;20.23;;;;;;;;;;5010757;28;20477;-40
2022/03/31 11:27:37;;;;;;;31.17;19.20;;;;;;;;;;5011245;28;20437;-42
2022/03/31 11:30:12;;;;;;;26.52;14.80;;;;;;;;;;5010711;28;20022;-41
2022/03/31 11:32:41;;;;;;;23.88;14.82;;;;;;;;;;5010274;28;20046;-41
2022/03/31 11:35:17;;;;;;;13.50;9.73;;;;;;;;;;5010726;28;20041;-42
2022/03/31 11:37:50;;;;;;;29.90;14.63;;;;;;;;;;5011196;28;20018;-40
2022/03/31 11:40:26;;;;;;;16.48;9.98;;;;;;;;;;5010663;28;20034;-42
2022/03/31 11:42:55;;;;;;;26.60;16.65;;;;;;;;;;5010549;28;20052;-43
2022/03/31 11:45:31;;;;;;;16.95;11.93;;;;;;;;;;5010600;28;20029;-42
2022/03/31 11:47:57;;;;;;;36.38;24.75;;;;;;;;;;5010736;28;20054;-41
2022/03/31 11:50:24;;;;;;;30.05;16.95;;;;;;;;;;5010691;28;20040;-43
2022/03/31 11:52:50;;;;;;;28.95;17.05;;;;;;;;;;5010669;28;20037;-41
2022/03/31 11:55:15;;;;;;;37.05;21.85;;;;;;;;;;5011179;28;20084;-41
2022/03/31 11:58:00;;;;;;;19.40;12.43;;;;;;;;;;5010411;28;20468;-42
2022/03/31 12:00:28;;;;;;;38.50;24.80;;;;;;;;;;5010814;28;20389;-41
2022/03/31 12:03:02;;;;;;;37.28;20.73;;;;;;;;;;5011899;28;20061;-41
2022/03/31 12:05:29;;;;;;;35.67;22.55;;;;;;;;;;5014322;28;20084;-41
2022/03/31 12:07:56;;;;;;;37.53;21.17;;;;;;;;;;5014202;28;20113;-41
2022/03/31 12:10:23;;;;;;;29.67;17.52;;;;;;;;;;5013943;28;20104;-42
2022/03/31 12:12:50;;;;;;;39.13;20.48;;;;;;;;;;5014090;28;20037;-41
2022/03/31 12:15:24;;;;;;;50.97;27.23;;;;;;;;;;5013871;28;20072;-40
2022/03/31 12:18:04;;;;;;;39.83;22.00;;;;;;;;;;5013494;28;20030;-44
2022/03/31 12:20:30;;;;;;;47.78;24.33;;;;;;;;;;5014396;28;20053;-42
2022/03/31 12:22:56;;;;;;;33.63;20.70;;;;;;;;;;5013915;28;20041;-43
2022/03/31 12:25:36;;;;;;;35.60;19.77;;;;;;;;;;5013858;28;20021;-41
2022/03/31 12:28:04;;;;;;;35.38;20.80;;;;;;;;;;5013848;28;20125;-41
2022/03/31 12:30:50;;;;;;;32.75;17.42;;;;;;;;;;5014119;28;20034;-41
2022/03/31 12:33:34;;;;;;;14.05;9.27;;;;;;;;;;5013685;28;20073;-41
2022/03/31 12:36:07;;;;;;;13.80;9.27;;;;;;;;;;5014191;28;20664;-42
2022/03/31 12:38:37;;;;;;;11.27;8.90;;;;;;;;;;5014016;28;20153;-41
2022/03/31 12:41:23;;;;;;;41.22;17.50;;;;;;;;;;5013451;28;20038;-40
2022/03/31 12:44:02;;;;;;;26.38;14.30;;;;;;;;;;5012586;28;20088;-42
2022/03/31 12:46:31;;;;;;;32.58;18.65;;;;;;;;;;5013583;28;20030;-41
2022/03/31 12:49:01;;;;;;;19.08;10.43;;;;;;;;;;5013310;28;20052;-42
2022/03/31 12:51:27;;;;;;;28.63;15.48;;;;;;;;;;5013754;28;20446;-41
2022/03/31 12:53:53;;;;;;;39.72;21.83;;;;;;;;;;5013420;28;20037;-43
2022/03/31 12:56:27;;;;;;;24.80;15.63;;;;;;;;;;5013610;28;20124;-41
2022/03/31 12:58:55;;;;;;;24.13;12.68;;;;;;;;;;5013758;28;20378;-42
2022/03/31 13:01:20;;;;;;;35.03;21.58;;;;;;;;;;5013144;28;20030;-41
2022/03/31 13:03:48;;;;;;;18.50;12.02;;;;;;;;;;5013552;28;20076;-41
2022/03/31 13:06:14;;;;;;;34.75;22.52;;;;;;;;;;5013033;28;20026;-41
2022/03/31 13:08:40;;;;;;;31.52;20.25;;;;;;;;;;5013308;28;20034;-40
2022/03/31 13:11:05;;;;;;;37.83;18.88;;;;;;;;;;5013018;28;20096;-41
2022/03/31 13:13:31;;;;;;;36.35;19.00;;;;;;;;;;5013203;28;20030;-42
2022/03/31 13:15:57;;;;;;;34.55;18.30;;;;;;;;;;5012376;28;20429;-42
2022/03/31 13:18:23;;;;;;;43.72;23.75;;;;;;;;;;5012834;28;20025;-43
2022/03/31 13:20:49;;;;;;;45.95;25.58;;;;;;;;;;5012724;28;20022;-42
2022/03/31 13:23:15;;;;;;;40.80;22.23;;;;;;;;;;5012860;28;20057;-44
2022/03/31 13:25:41;;;;;;;47.28;24.23;;;;;;;;;;5013183;28;20030;-42
2022/03/31 13:28:08;;;;;;;36.35;20.35;;;;;;;;;;5012144;28;20026;-43
2022/03/31 13:30:33;;;;;;;49.42;30.25;;;;;;;;;;5012223;28;20062;-41
2022/03/31 13:32:59;;;;;;;50.75;29.77;;;;;;;;;;5012567;28;20057;-45
2022/03/31 13:35:25;;;;;;;55.92;35.75;;;;;;;;;;5012714;28;20053;-45
2022/03/31 13:37:53;;;;;;;61.17;36.00;;;;;;;;;;5012479;28;20061;-42
2022/03/31 13:40:19;;;;;;;60.33;37.95;;;;;;;;;;5012829;28;20052;-43
2022/03/31 13:42:45;;;;;;;57.42;35.05;;;;;;;;;;5012784;28;20121;-41
2022/03/31 13:45:12;;;;;;;55.78;35.17;;;;;;;;;;5012621;28;20109;-47
2022/03/31 13:47:44;;;;;;;47.55;27.63;;;;;;;;;;5012675;28;20402;-42
2022/03/31 13:50:15;;;;;;;54.70;34.38;;;;;;;;;;5012206;28;20504;-40
2022/03/31 13:52:41;;;;;;;45.65;27.42;;;;;;;;;;5012010;28;20473;-40
2022/03/31 13:55:08;;;;;;;58.00;31.40;;;;;;;;;;5011942;28;20037;-41
2022/03/31 14:03:02;;;;;;;33.92;21.30;;;;;;;;;;5012484;28;20083;-41
2022/03/31 14:05:27;;;;;;;45.72;20.75;;;;;;;;;;5011755;28;20034;-46
2022/03/31 14:07:55;;;;;;;59.72;26.55;;;;;;;;;;5012110;28;20045;-41
2022/03/31 14:10:21;;;;;;;42.13;20.77;;;;;;;;;;5011912;28;20367;-41
2022/03/31 14:12:47;;;;;;;52.35;28.83;;;;;;;;;;5012048;28;20041;-43
2022/03/31 14:15:13;;;;;;;45.30;25.95;;;;;;;;;;5011878;28;20026;-42
2022/03/31 14:17:38;;;;;;;35.28;21.02;;;;;;;;;;5011856;28;20032;-43
2022/03/31 14:20:05;;;;;;;44.55;27.92;;;;;;;;;;5011646;28;20033;-41
2022/03/31 14:22:31;;;;;;;49.08;24.88;;;;;;;;;;5011682;28;20026;-45
2022/03/31 14:24:57;;;;;;;44.00;22.55;;;;;;;;;;5011988;28;20040;-41
2022/03/31 14:27:22;;;;;;;43.70;22.55;;;;;;;;;;5011496;28;20022;-42
2022/03/31 14:29:48;;;;;;;40.67;23.60;;;;;;;;;;5011719;28;20113;-44
2022/03/31 14:32:14;;;;;;;43.70;23.30;;;;;;;;;;5011593;28;20045;-42
2022/03/31 14:34:39;;;;;;;41.28;24.30;;;;;;;;;;5011754;28;20022;-41
2022/03/31 14:37:05;;;;;;;47.35;25.77;;;;;;;;;;5011802;28;20025;-41
2022/03/31 14:39:31;;;;;;;41.72;24.42;;;;;;;;;;5011753;28;20030;-41